Time;durP1;ratioP1;P1;durP2;ratioP2;P2;SDS_P1;SDS_P2;PMS_P1;PMS_P2;Temp;Humidity;BMP_temperature;BMP_pressure;BME280_temperature;BME280_humidity;BME280_pressure;Samples;Min_cycle;Max_cycle;Signal;HPM_P1;HPM_P2
2022/11/19 00:01:07;;;;;;;;;;;;;;;20.07;48.14;100273.75;5118880;28;20023;-39
2022/11/19 00:03:33;;;;;;;;;;;;;;;20.08;48.09;100275.41;5119680;28;19981;-39
2022/11/19 00:06:03;;;;;;;;;;;;;;;20.08;48.02;100278.16;5106858;28;20018;-39
2022/11/19 00:08:28;;;;;;;;;;;;;;;20.08;48.05;100269.88;5115851;28;20427;-38
2022/11/19 00:10:54;;;;;;;;;;;;;;;20.08;48.43;100278.16;5116481;28;19931;-37
2022/11/19 00:13:20;;;;;;;;;;;;;;;20.07;48.15;100283.97;5116368;28;20024;-39
2022/11/19 00:15:45;;;;;;;;;;;;;;;20.06;48.09;100277.63;5125728;27;19928;-39
2022/11/19 00:18:11;;;;;;;;;;;;;;;20.08;48.04;100275.41;5123624;28;20469;-38
2022/11/19 00:20:36;;;;;;;;;;;;;;;20.07;48.16;100272.91;5126644;28;20303;-38
2022/11/19 00:23:02;;;;;;;;;;;;;;;20.07;47.99;100273.75;5120141;28;19943;-37
2022/11/19 00:25:28;;;;;;;;;;;;;;;20.08;48.15;100274.56;5121203;28;19927;-38
2022/11/19 00:27:55;;;;;;;;;;;;;;;20.07;48.26;100273.75;5119455;28;19963;-37
2022/11/19 00:30:21;;;;;;;;;;;;;;;20.07;48.13;100283.97;5115181;27;20396;-39
2022/11/19 00:33:06;;;;;;;;;;;;;;;20.05;48.17;100268.53;5105972;28;20132;-38
2022/11/19 00:35:32;;;;;;;;;;;;;;;20.07;47.98;100276.50;5124144;28;19991;-38
2022/11/19 00:37:57;;;;;;;;;;;;;;;20.05;48.45;100268.53;5123325;28;20329;-39
2022/11/19 00:40:23;;;;;;;;;;;;;;;20.06;48.07;100280.41;5126618;28;19932;-39
2022/11/19 00:45:34;;;;;;;;;;;;;;;20.07;48.24;100281.22;5110775;27;20441;-40
2022/11/19 00:48:00;;;;;;;;;;;;;;;20.06;48.00;100285.94;5126771;28;20173;-38
2022/11/19 00:50:25;;;;;;;;;;;;;;;20.05;48.27;100293.41;5125810;28;20344;-38
2022/11/19 00:52:51;;;;;;;;;;;;;;;20.04;48.13;100293.72;5119635;28;19931;-39
2022/11/19 00:55:16;;;;;;;;;;;;;;;20.04;48.02;100290.94;5122764;28;19939;-39
2022/11/19 00:57:42;;;;;;;;;;;;;;;20.03;48.40;100292.91;5123291;28;19954;-39
2022/11/19 01:00:08;;;;;;;;;;;;;;;20.03;48.16;100294.81;5124249;28;19951;-39
2022/11/19 01:02:33;;;;;;;;;;;;;;;20.03;48.44;100301.19;5120405;28;19952;-38
2022/11/19 01:04:59;;;;;;;;;;;;;;;20.03;48.16;100297.56;5125049;28;20048;-39
2022/11/19 01:07:24;;;;;;;;;;;;;;;20.03;48.15;100303.94;5119019;28;19939;-39
2022/11/19 01:09:50;;;;;;;;;;;;;;;20.03;48.19;100306.72;5123773;28;19935;-39
2022/11/19 01:12:16;;;;;;;;;;;;;;;20.03;48.26;100308.63;5121811;28;20051;-38
2022/11/19 01:14:41;;;;;;;;;;;;;;;20.03;48.19;100305.88;5125348;28;20391;-38
2022/11/19 01:17:07;;;;;;;;;;;;;;;20.02;48.19;100310.56;5121263;28;19977;-39
2022/11/19 01:19:32;;;;;;;;;;;;;;;20.03;48.18;100316.91;5124431;28;19927;-39
2022/11/19 01:21:58;;;;;;;;;;;;;;;20.02;48.37;100316.09;5124519;28;20299;-39
2022/11/19 01:24:23;;;;;;;;;;;;;;;20.02;48.54;100316.09;5124848;28;19932;-38
2022/11/19 01:26:49;;;;;;;;;;;;;;;20.02;48.22;100307.81;5122902;28;19931;-39
2022/11/19 01:29:15;;;;;;;;;;;;;;;20.02;48.42;100315.28;5125556;28;19931;-39
2022/11/19 01:31:40;;;;;;;;;;;;;;;20.01;48.35;100314.47;5124010;27;19927;-39
2022/11/19 01:34:06;;;;;;;;;;;;;;;20.01;48.49;100316.41;5122691;28;20364;-39
2022/11/19 01:36:31;;;;;;;;;;;;;;;20.02;48.21;100323.56;5123934;28;19923;-38
2022/11/19 01:38:57;;;;;;;;;;;;;;;20.01;48.17;100322.75;5127014;28;19923;-39
2022/11/19 01:41:23;;;;;;;;;;;;;;;20.01;48.47;100322.75;5115632;28;19955;-38
2022/11/19 01:43:50;;;;;;;;;;;;;;;20.02;48.28;100331.88;5103876;28;19951;-38
2022/11/19 01:46:16;;;;;;;;;;;;;;;20.00;48.18;100329.41;5121403;28;20027;-39
2022/11/19 01:48:45;;;;;;;;;;;;;;;20.01;48.21;100331.06;5127236;28;19970;-39
2022/11/19 01:51:12;;;;;;;;;;;;;;;20.02;48.32;100340.16;5122579;28;20120;-39
2022/11/19 01:53:37;;;;;;;;;;;;;;;20.01;48.20;100342.09;5122286;28;19959;-39
2022/11/19 01:56:03;;;;;;;;;;;;;;;20.00;48.27;100339.66;5100214;28;19927;-37
2022/11/19 01:58:30;;;;;;;;;;;;;;;20.00;48.04;100336.91;5124796;27;19924;-39
2022/11/19 02:00:56;;;;;;;;;;;;;;;20.00;48.06;100342.41;5126418;28;20026;-37
2022/11/19 02:03:21;;;;;;;;;;;;;;;20.00;48.21;100339.66;5103721;28;19939;-38
2022/11/19 02:05:47;;;;;;;;;;;;;;;20.00;48.30;100345.19;5129848;28;19923;-38
2022/11/19 02:08:32;;;;;;;;;;;;;;;20.01;48.11;100344.06;5106419;28;19927;-39
2022/11/19 02:11:00;;;;;;;;;;;;;;;20.01;48.20;100349.59;5124737;28;20027;-39
2022/11/19 02:13:30;;;;;;;;;;;;;;;19.99;48.34;100349.91;5114949;28;20004;-40
2022/11/19 02:15:58;;;;;;;;;;;;;;;20.00;48.08;100353.47;5124921;28;20325;-39
2022/11/19 02:18:27;;;;;;;;;;;;;;;19.99;48.49;100360.94;5108134;28;19927;-39
2022/11/19 02:20:56;;;;;;;;;;;;;;;20.00;48.33;100357.06;5126859;28;20234;-38
2022/11/19 02:23:31;;;;;;;;;;;;;;;20.00;48.24;100367.28;5103927;28;20014;-39
2022/11/19 02:26:16;;;;;;;;;;;;;;;19.99;48.19;100358.19;5122661;28;19979;-39
2022/11/19 02:28:43;;;;;;;;;;;;;;;19.99;48.40;100360.94;5112652;28;20061;-38
2022/11/19 02:31:14;;;;;;;;;;;;;;;19.99;48.17;100360.09;5124974;28;19976;-38
2022/11/19 02:33:59;;;;;;;;;;;;;;;19.99;48.48;100365.63;5125378;28;20010;-38
2022/11/19 02:36:26;;;;;;;;;;;;;;;19.99;48.22;100360.09;5126585;28;20643;-38
2022/11/19 02:38:55;;;;;;;;;;;;;;;19.98;48.33;100370.34;5110426;28;19958;-39
2022/11/19 02:46:55;;;;;;;;;;;;;;;19.98;48.43;100370.34;5140003;27;19991;-37
2022/11/19 02:49:21;;;;;;;;;;;;;;;19.98;48.13;100370.34;5170315;27;20755;-39
2022/11/19 02:51:47;;;;;;;;;;;;;;;19.98;48.36;100375.88;5173075;27;19931;-39
2022/11/19 02:54:14;;;;;;;;;;;;;;;19.99;48.34;100374.78;5173542;27;20015;-39
2022/11/19 02:56:57;;;;;;;;;;;;;;;19.98;48.21;100378.63;5174085;27;20397;-39
2022/11/19 03:04:57;;;;;;;;;;;;;;;19.98;48.16;100378.63;5131666;27;20055;-40
2022/11/19 03:07:23;;;;;;;;;;;;;;;19.99;48.36;100387.75;5147034;27;19923;-38
2022/11/19 03:09:51;;;;;;;;;;;;;;;19.98;48.28;100386.09;5149100;27;20273;-39
2022/11/19 03:12:22;;;;;;;;;;;;;;;19.97;48.13;100382.53;5135309;27;20390;-40
2022/11/19 03:17:49;;;;;;;;;;;;;;;19.97;48.31;100401.88;5120405;27;20391;-39
2022/11/19 03:20:20;;;;;;;;;;;;;;;19.97;48.48;100398.28;5150920;27;19964;-39
2022/11/19 03:22:53;;;;;;;;;;;;;;;19.97;48.32;100395.53;5133556;27;19988;-39
2022/11/19 03:25:25;;;;;;;;;;;;;;;19.97;48.33;100392.75;5149516;27;20379;-39
2022/11/19 03:27:51;;;;;;;;;;;;;;;19.97;48.27;100401.06;5150765;27;20006;-39
2022/11/19 03:30:17;;;;;;;;;;;;;;;19.96;48.31;100400.22;5148630;27;20449;-38
2022/11/19 03:32:45;;;;;;;;;;;;;;;19.96;48.13;100389.19;5132207;27;19931;-39
2022/11/19 03:35:12;;;;;;;;;;;;;;;19.96;48.29;100394.72;5152533;27;20820;-39
2022/11/19 03:37:38;;;;;;;;;;;;;;;19.96;48.37;100397.47;5151941;27;20381;-37
2022/11/19 03:40:04;;;;;;;;;;;;;;;19.95;48.09;100395.84;5151343;27;19923;-38
2022/11/19 03:42:29;;;;;;;;;;;;;;;19.96;48.14;100396.66;5157252;27;19923;-39
2022/11/19 03:44:56;;;;;;;;;;;;;;;19.97;48.21;100398.28;5151402;27;19923;-39
2022/11/19 03:47:24;;;;;;;;;;;;;;;19.96;48.31;100396.66;5154626;27;20458;-38
2022/11/19 03:49:51;;;;;;;;;;;;;;;19.96;48.23;100402.19;5151969;27;19962;-38
2022/11/19 03:52:17;;;;;;;;;;;;;;;19.95;48.08;100404.13;5150557;27;19974;-37
2022/11/19 03:54:43;;;;;;;;;;;;;;;19.95;48.16;100397.78;5102341;28;20030;-39
2022/11/19 03:57:09;;;;;;;;;;;;;;;19.95;48.23;100411.59;5139463;27;19924;-37
2022/11/19 03:59:35;;;;;;;;;;;;;;;19.95;47.99;100415.19;5117426;27;19969;-40
2022/11/19 04:02:02;;;;;;;;;;;;;;;19.96;48.24;100418.75;5109607;27;19923;-39
2022/11/19 04:04:35;;;;;;;;;;;;;;;19.95;48.29;100420.72;5137781;27;19931;-38
2022/11/19 04:07:02;;;;;;;;;;;;;;;19.95;48.35;100417.94;5137307;27;20022;-38
2022/11/19 04:09:27;;;;;;;;;;;;;;;19.95;48.22;100423.47;5136623;27;19930;-38
2022/11/19 04:11:53;;;;;;;;;;;;;;;19.95;48.25;100419.88;5133358;27;19927;-38
2022/11/19 04:14:18;;;;;;;;;;;;;;;19.94;48.17;100427.34;5136895;27;19992;-39
2022/11/19 04:16:44;;;;;;;;;;;;;;;19.95;48.43;100428.19;5137448;27;19924;-38
2022/11/19 04:19:10;;;;;;;;;;;;;;;19.95;48.16;100431.75;5139323;27;20086;-39
2022/11/19 04:21:35;;;;;;;;;;;;;;;19.95;48.29;100436.47;5117198;28;19954;-39
2022/11/19 04:24:01;;;;;;;;;;;;;;;19.93;48.35;100436.75;5135561;27;20075;-38
2022/11/19 04:26:26;;;;;;;;;;;;;;;19.94;48.25;100438.38;5140201;27;19968;-39
2022/11/19 04:28:52;;;;;;;;;;;;;;;19.93;48.33;100436.75;5135470;27;19930;-39
2022/11/19 04:31:18;;;;;;;;;;;;;;;19.94;48.02;100430.09;5128871;27;20290;-38
2022/11/19 04:33:43;;;;;;;;;;;;;;;19.94;48.16;100426.50;5139603;27;19927;-39
2022/11/19 04:36:09;;;;;;;;;;;;;;;19.94;48.20;100432.84;5136002;27;20379;-39
2022/11/19 04:38:34;;;;;;;;;;;;;;;19.94;48.38;100432.84;5133040;27;19924;-37
2022/11/19 04:41:00;;;;;;;;;;;;;;;19.94;48.21;100429.28;5132507;27;19924;-37
2022/11/19 04:43:25;;;;;;;;;;;;;;;19.94;48.45;100432.03;5138038;27;19923;-39
2022/11/19 04:45:51;;;;;;;;;;;;;;;19.94;48.02;100437.56;5130759;27;19930;-38
2022/11/19 04:48:16;;;;;;;;;;;;;;;19.93;48.38;100434.00;5131837;27;20022;-39
2022/11/19 04:50:42;;;;;;;;;;;;;;;19.94;48.12;100445.84;5132165;27;19939;-39
2022/11/19 04:53:08;;;;;;;;;;;;;;;19.93;48.36;100446.97;5138147;27;19923;-39
2022/11/19 04:55:33;;;;;;;;;;;;;;;19.93;48.41;100449.75;5138699;27;19923;-39
2022/11/19 04:57:59;;;;;;;;;;;;;;;19.93;48.09;100452.50;5137509;27;20382;-39
2022/11/19 05:00:24;;;;;;;;;;;;;;;19.92;48.20;100457.22;5137235;27;19923;-39
2022/11/19 05:02:50;;;;;;;;;;;;;;;19.93;48.20;100458.84;5133780;27;19976;-40
2022/11/19 05:05:15;;;;;;;;;;;;;;;19.93;48.16;100461.63;5134464;27;20390;-39
2022/11/19 05:07:41;;;;;;;;;;;;;;;19.92;48.20;100460.00;5132728;27;19923;-38
2022/11/19 05:10:07;;;;;;;;;;;;;;;19.92;48.24;100462.75;5136919;27;19942;-40
2022/11/19 05:12:32;;;;;;;;;;;;;;;19.92;48.24;100460.00;5144680;27;19930;-40
2022/11/19 05:14:58;;;;;;;;;;;;;;;19.92;48.11;100472.97;5136099;27;19925;-39
2022/11/19 05:17:23;;;;;;;;;;;;;;;19.93;48.20;100474.63;5135038;27;19931;-37
2022/11/19 05:19:49;;;;;;;;;;;;;;;19.92;48.21;100479.34;5136067;27;19927;-40
2022/11/19 05:22:14;;;;;;;;;;;;;;;19.93;48.08;100480.16;5140276;27;19924;-39
2022/11/19 05:24:40;;;;;;;;;;;;;;;19.92;48.09;100482.09;5135302;27;19923;-38
2022/11/19 05:27:05;;;;;;;;;;;;;;;19.92;48.17;100473.81;5144973;27;19930;-38
2022/11/19 05:29:31;;;;;;;;;;;;;;;19.91;48.29;100474.94;5139357;27;19942;-39
2022/11/19 05:31:56;;;;;;;;;;;;;;;19.92;48.42;100478.50;5132305;27;20408;-39
2022/11/19 05:34:22;;;;;;;;;;;;;;;19.92;48.17;100484.03;5132691;27;19924;-39
2022/11/19 05:36:48;;;;;;;;;;;;;;;19.91;48.35;100488.75;5145348;27;19967;-39
2022/11/19 05:39:13;;;;;;;;;;;;;;;19.91;48.20;100488.75;5138232;27;20279;-39
2022/11/19 05:41:46;;;;;;;;;;;;;;;19.92;48.09;100489.56;5136600;27;19945;-39
2022/11/19 05:44:12;;;;;;;;;;;;;;;19.91;48.14;100491.50;5137352;27;19935;-39
2022/11/19 05:46:38;;;;;;;;;;;;;;;19.92;48.12;100495.09;5133467;27;20301;-39
2022/11/19 05:49:03;;;;;;;;;;;;;;;19.91;48.23;100496.22;5133018;27;19923;-39
2022/11/19 05:51:29;;;;;;;;;;;;;;;19.91;48.21;100493.47;5133352;27;19923;-38
2022/11/19 05:53:54;;;;;;;;;;;;;;;19.90;48.14;100498.13;5136274;27;20355;-38
2022/11/19 05:56:20;;;;;;;;;;;;;;;19.91;48.04;100497.03;5131872;27;19924;-39
2022/11/19 05:58:45;;;;;;;;;;;;;;;19.91;48.34;100496.22;5132850;27;19927;-38
2022/11/19 06:01:12;;;;;;;;;;;;;;;19.90;48.18;100511.94;5133436;27;19931;-39
2022/11/19 06:03:39;;;;;;;;;;;;;;;19.91;48.30;100512.81;5139862;27;20008;-39
2022/11/19 06:06:05;;;;;;;;;;;;;;;19.90;48.21;100514.72;5125533;27;19966;-39
2022/11/19 06:08:30;;;;;;;;;;;;;;;19.91;48.29;100515.56;5135704;27;19924;-38
2022/11/19 06:10:56;;;;;;;;;;;;;;;19.90;48.17;100523.00;5136273;27;20369;-37
2022/11/19 06:13:21;;;;;;;;;;;;;;;19.90;48.11;100527.72;5135232;27;19930;-37
2022/11/19 06:15:47;;;;;;;;;;;;;;;19.90;48.12;100531.28;5130156;27;19923;-39
2022/11/19 06:18:12;;;;;;;;;;;;;;;19.90;48.12;100524.94;5136594;27;20429;-40
2022/11/19 06:20:38;;;;;;;;;;;;;;;19.90;48.10;100531.28;5132651;27;19923;-39
2022/11/19 06:23:04;;;;;;;;;;;;;;;19.90;48.26;100542.34;5135589;27;19931;-39
2022/11/19 06:25:29;;;;;;;;;;;;;;;19.90;48.06;100536.00;5139827;27;19923;-38
2022/11/19 06:27:55;;;;;;;;;;;;;;;19.90;47.93;100538.75;5128629;27;19936;-39
2022/11/19 06:30:20;;;;;;;;;;;;;;;19.90;48.22;100541.53;5131013;27;20385;-38
2022/11/19 06:32:46;;;;;;;;;;;;;;;19.89;48.11;100542.66;5132531;27;20439;-39
2022/11/19 06:35:12;;;;;;;;;;;;;;;19.90;48.27;100552.59;5133406;27;19939;-39
2022/11/19 06:37:39;;;;;;;;;;;;;;;19.89;48.08;100556.47;5132073;27;20386;-40
2022/11/19 06:40:05;;;;;;;;;;;;;;;19.88;48.20;100561.19;5138826;27;19923;-38
2022/11/19 06:42:38;;;;;;;;;;;;;;;19.88;48.06;100566.72;5136393;27;19923;-40
2022/11/19 06:45:04;;;;;;;;;;;;;;;19.89;48.12;100573.06;5125940;27;19962;-40
2022/11/19 06:47:30;;;;;;;;;;;;;;;19.89;48.25;100564.75;5130607;27;19966;-39
2022/11/19 06:49:56;;;;;;;;;;;;;;;19.90;47.97;100577.47;5113649;27;20375;-38
2022/11/19 06:52:21;;;;;;;;;;;;;;;19.89;48.12;100581.34;5115970;27;19938;-38
2022/11/19 06:54:47;;;;;;;;;;;;;;;19.88;48.11;100577.75;5128728;27;19938;-38
2022/11/19 06:57:12;;;;;;;;;;;;;;;19.88;48.34;100577.75;5133282;27;20013;-39
2022/11/19 06:59:38;;;;;;;;;;;;;;;19.88;47.99;100574.19;5132474;27;19924;-40
2022/11/19 07:02:04;;;;;;;;;;;;;;;19.89;48.04;100584.09;5137412;27;19924;-37
2022/11/19 07:04:29;;;;;;;;;;;;;;;19.88;48.15;100596.28;5133965;27;20272;-39
2022/11/19 07:06:55;;;;;;;;;;;;;;;19.88;48.12;100594.34;5135593;27;19928;-39
2022/11/19 07:09:21;;;;;;;;;;;;;;;19.88;48.13;100601.81;5133792;27;20409;-39
2022/11/19 07:11:47;;;;;;;;;;;;;;;19.88;48.03;100601.81;5130533;27;19972;-38
2022/11/19 07:14:12;;;;;;;;;;;;;;;19.88;48.07;100608.16;5131475;27;19935;-38
2022/11/19 07:16:38;;;;;;;;;;;;;;;19.88;48.17;100610.09;5134955;27;19931;-38
2022/11/19 07:19:04;;;;;;;;;;;;;;;19.87;47.98;100614.00;5130766;27;20428;-38
2022/11/19 07:21:30;;;;;;;;;;;;;;;19.88;48.02;100618.41;5116687;27;19959;-38
2022/11/19 07:23:56;;;;;;;;;;;;;;;19.88;47.99;100615.63;5135143;27;19931;-39
2022/11/19 07:26:22;;;;;;;;;;;;;;;19.87;48.05;100612.06;5131330;27;20275;-38
2022/11/19 07:28:47;;;;;;;;;;;;;;;19.87;48.03;100617.56;5131578;27;19931;-37
2022/11/19 07:31:13;;;;;;;;;;;;;;;19.87;48.35;100622.28;5134460;27;19923;-38
2022/11/19 07:33:38;;;;;;;;;;;;;;;19.87;48.12;100614.00;5139494;27;19947;-39
2022/11/19 07:36:06;;;;;;;;;;;;;;;19.86;48.17;100618.69;5135944;27;20402;-38
2022/11/19 07:38:31;;;;;;;;;;;;;;;19.87;48.21;100622.28;5138214;27;19977;-38
2022/11/19 07:42:47;;;;;;;;;;;;;;;19.86;48.31;100629.75;5133374;27;19964;-37
2022/11/19 07:43:48;;;;;;;;;;;;;;;19.87;48.07;100636.09;5108346;27;20025;-39
2022/11/19 07:46:13;;;;;;;;;;;;;;;19.87;48.15;100642.44;5117004;27;19924;-39
2022/11/19 07:48:39;;;;;;;;;;;;;;;19.86;48.30;100635.28;5133627;27;19923;-38
2022/11/19 07:57:36;;;;;;;;;;;;;;;19.87;48.32;100641.63;5141878;27;19963;-39
2022/11/19 08:00:02;;;;;;;;;;;;;;;19.86;48.26;100643.56;5141477;27;19976;-39
2022/11/19 08:02:28;;;;;;;;;;;;;;;19.86;48.13;100646.34;5126738;27;20363;-39
2022/11/19 08:04:53;;;;;;;;;;;;;;;19.86;48.29;100660.16;5139990;27;19931;-37
2022/11/19 08:07:19;;;;;;;;;;;;;;;19.86;48.12;100657.38;5137074;27;19932;-38
2022/11/19 08:09:44;;;;;;;;;;;;;;;19.86;48.19;100664.81;5133496;27;19947;-39
2022/11/19 08:12:10;;;;;;;;;;;;;;;19.86;48.19;100673.13;5136161;27;19923;-38
2022/11/19 08:14:35;;;;;;;;;;;;;;;19.86;48.33;100664.81;5139237;27;19975;-39
2022/11/19 08:19:46;;;;;;;;;;;;;;;19.85;48.14;100669.53;5120240;27;20000;-39
2022/11/19 08:22:12;;;;;;;;;;;;;;;19.85;48.27;100675.06;5136650;27;19923;-39
2022/11/19 08:24:37;;;;;;;;;;;;;;;19.86;48.27;100681.41;5136233;27;19923;-39
2022/11/19 08:27:04;;;;;;;;;;;;;;;19.85;48.14;100686.13;5139302;27;20374;-39
2022/11/19 08:29:29;;;;;;;;;;;;;;;19.85;48.08;100688.06;5136496;27;19962;-39
2022/11/19 08:31:55;;;;;;;;;;;;;;;19.85;48.31;100686.13;5118951;27;19977;-39
2022/11/19 08:34:21;;;;;;;;;;;;;;;19.84;48.23;100676.19;5140121;27;19948;-38
2022/11/19 08:36:47;;;;;;;;;;;;;;;19.85;48.06;100685.28;5132955;27;20018;-39
2022/11/19 08:39:13;;;;;;;;;;;;;;;19.85;48.06;100691.66;5135145;27;19931;-38
2022/11/19 08:44:24;;;;;;;;;;;;;;;19.85;48.10;100682.53;5114210;27;20339;-39
2022/11/19 08:46:49;;;;;;;;;;;;;;;19.85;48.06;100685.28;5137846;27;19924;-39
2022/11/19 08:49:15;;;;;;;;;;;;;;;19.84;48.14;100687.25;5132829;27;19954;-39
2022/11/19 08:51:40;;;;;;;;;;;;;;;19.84;48.17;100687.25;5138608;27;20283;-39
2022/11/19 08:54:06;;;;;;;;;;;;;;;19.84;48.24;100689.19;5137567;27;19936;-40
2022/11/19 08:56:32;;;;;;;;;;;;;;;19.85;48.23;100696.34;5137946;27;19938;-39
2022/11/19 08:58:57;;;;;;;;;;;;;;;19.83;48.17;100699.41;5126192;27;20003;-39
2022/11/19 09:01:28;;;;;;;;;;;;;;;19.85;48.17;100699.13;5139506;27;19932;-38
2022/11/19 09:03:53;;;;;;;;;;;;;;;19.84;48.10;100698.28;5136169;27;20308;-38
2022/11/19 09:06:19;;;;;;;;;;;;;;;19.84;48.11;100703.81;5135966;27;19923;-38
2022/11/19 09:08:44;;;;;;;;;;;;;;;19.84;48.10;100709.34;5134077;27;19975;-39
2022/11/19 09:11:11;;;;;;;;;;;;;;;19.84;47.99;100711.28;5132229;27;20267;-37
2022/11/19 09:13:37;;;;;;;;;;;;;;;19.83;48.08;100716.00;5119732;27;19931;-37
2022/11/19 09:16:02;;;;;;;;;;;;;;;19.84;48.31;100727.88;5115454;27;19971;-38
2022/11/19 09:18:28;;;;;;;;;;;;;;;19.83;48.19;100723.47;5124413;27;20302;-38
2022/11/19 09:20:54;;;;;;;;;;;;;;;19.84;48.27;100730.63;5135011;27;19974;-39
2022/11/19 09:23:20;;;;;;;;;;;;;;;19.84;47.97;100733.41;5140936;27;19965;-38
2022/11/19 09:25:54;;;;;;;;;;;;;;;19.84;48.25;100730.63;5132120;27;19962;-37
2022/11/19 09:28:20;;;;;;;;;;;;;;;19.83;48.12;100727.03;5129979;27;20005;-38
2022/11/19 09:30:52;;;;;;;;;;;;;;;19.84;47.99;100731.44;5131156;27;20284;-37
2022/11/19 09:33:18;;;;;;;;;;;;;;;19.83;47.99;100738.09;5131960;27;19967;-38
2022/11/19 09:35:43;;;;;;;;;;;;;;;19.83;48.16;100738.09;5131199;27;19923;-38
2022/11/19 09:38:09;;;;;;;;;;;;;;;19.83;48.05;100742.81;5137462;27;20351;-39
2022/11/19 09:40:35;;;;;;;;;;;;;;;19.83;48.35;100746.41;5135333;27;19931;-37
2022/11/19 09:43:05;;;;;;;;;;;;;;;19.83;48.07;100746.41;5136183;27;20348;-38
2022/11/19 09:45:36;;;;;;;;;;;;;;;19.83;48.11;100749.16;5113567;27;19972;-38
2022/11/19 09:48:07;;;;;;;;;;;;;;;19.83;48.11;100751.91;5136494;27;20067;-38
2022/11/19 09:50:44;;;;;;;;;;;;;;;19.83;47.93;100751.09;5136207;27;20279;-37
2022/11/19 09:53:18;;;;;;;;;;;;;;;19.83;47.99;100751.09;5117452;27;19966;-38
2022/11/19 09:55:44;;;;;;;;;;;;;;;19.84;48.13;100752.75;5113976;27;20079;-38
2022/11/19 09:58:11;;;;;;;;;;;;;;;19.82;48.01;100757.72;5117625;27;19981;-38
2022/11/19 10:00:37;;;;;;;;;;;;;;;19.83;48.21;100764.91;5138259;27;20014;-39
2022/11/19 10:03:14;;;;;;;;;;;;;;;19.83;48.08;100762.97;5136387;27;20334;-37
2022/11/19 10:06:00;;;;;;;;;;;;;;;19.82;48.20;100755.81;5113094;28;20294;-39
2022/11/19 10:08:45;;;;;;;;;;;;;;;19.82;48.24;100763.25;5121278;27;19935;-39
2022/11/19 10:11:21;;;;;;;;;;;;;;;19.82;48.08;100761.34;5117980;27;20059;-39
2022/11/19 10:14:06;;;;;;;;;;;;;;;19.82;48.30;100766.00;5111313;27;20491;-37
2022/11/19 10:16:36;;;;;;;;;;;;;;;19.82;48.33;100774.28;5115267;27;20043;-38
2022/11/19 10:19:06;;;;;;;;;;;;;;;19.82;48.30;100779.81;5127098;27;19931;-36
2022/11/19 10:21:36;;;;;;;;;;;;;;;19.82;48.03;100777.91;5133031;27;19927;-38
2022/11/19 10:24:07;;;;;;;;;;;;;;;19.82;48.00;100777.91;5135236;27;19972;-38
2022/11/19 10:26:34;;;;;;;;;;;;;;;19.81;48.04;100787.28;5136589;27;19934;-38
2022/11/19 10:28:59;;;;;;;;;;;;;;;19.82;48.33;100788.97;5113342;27;19970;-38
2022/11/19 10:31:27;;;;;;;;;;;;;;;19.82;48.18;100790.88;5132709;27;19930;-39
2022/11/19 10:33:56;;;;;;;;;;;;;;;19.82;48.18;100788.13;5129946;27;19947;-38
2022/11/19 10:36:23;;;;;;;;;;;;;;;19.82;48.19;100790.88;5112975;28;20383;-37
2022/11/19 10:38:51;;;;;;;;;;;;;;;19.81;48.17;100792.81;5135639;27;20377;-37
2022/11/19 10:41:18;;;;;;;;;;;;;;;19.82;48.01;100790.88;5138505;27;20379;-38
2022/11/19 10:43:47;;;;;;;;;;;;;;;19.81;48.10;100792.81;5134995;27;20069;-38
2022/11/19 10:46:14;;;;;;;;;;;;;;;19.82;47.99;100793.63;5113359;28;19981;-38
2022/11/19 10:48:40;;;;;;;;;;;;;;;19.81;48.11;100787.28;5112140;28;19924;-36
2022/11/19 10:51:22;;;;;;;;;;;;;;;19.80;48.21;100783.72;5113306;27;19923;-37
2022/11/19 10:53:47;;;;;;;;;;;;;;;19.81;48.17;100784.53;5134327;27;19950;-39
2022/11/19 10:56:14;;;;;;;;;;;;;;;19.80;47.95;100775.41;5135513;27;20348;-38
2022/11/19 10:58:55;;;;;;;;;;;;;;;19.80;48.04;100777.34;5120803;27;20382;-39
2022/11/19 11:04:12;;;;;;;;;;;;;;;19.80;48.04;100780.94;5167797;27;20281;-36
2022/11/19 11:06:57;;;;;;;;;;;;;;;19.80;48.03;100772.66;5168548;27;19980;-37
2022/11/19 11:09:31;;;;;;;;;;;;;;;19.80;48.11;100775.41;5157975;27;19923;-38
2022/11/19 11:14:58;;;;;;;;;;;;;;;19.81;48.17;100773.47;5149440;27;20016;-39
2022/11/19 11:17:24;;;;;;;;;;;;;;;19.79;48.12;100773.78;5167744;27;19966;-39
2022/11/19 11:19:58;;;;;;;;;;;;;;;19.80;48.15;100777.34;5167327;27;19969;-37
2022/11/19 11:22:23;;;;;;;;;;;;;;;19.80;48.14;100778.19;5151632;27;19962;-39
2022/11/19 11:24:49;;;;;;;;;;;;;;;19.80;48.23;100777.34;5165636;27;19941;-37
2022/11/19 11:27:18;;;;;;;;;;;;;;;19.79;48.06;100782.06;5166355;27;20359;-39
2022/11/19 11:29:44;;;;;;;;;;;;;;;19.80;48.23;100780.13;5154104;27;19974;-38
2022/11/19 11:32:26;;;;;;;;;;;;;;;19.80;48.12;100772.66;5148775;27;20310;-37
2022/11/19 11:34:51;;;;;;;;;;;;;;;19.79;48.03;100782.06;5150895;27;19962;-38
2022/11/19 11:37:17;;;;;;;;;;;;;;;19.80;48.24;100782.88;5167466;27;19938;-38
2022/11/19 11:39:43;;;;;;;;;;;;;;;19.79;48.23;100773.78;5167196;27;19931;-39
2022/11/19 11:42:11;;;;;;;;;;;;;;;19.79;48.27;100773.78;5165424;27;20302;-39
2022/11/19 11:44:51;;;;;;;;;;;;;;;19.79;47.98;100779.31;5164353;27;19927;-38
2022/11/19 11:47:17;;;;;;;;;;;;;;;19.79;47.97;100775.72;5147005;27;19966;-39
2022/11/19 11:49:43;;;;;;;;;;;;;;;19.79;48.05;100770.19;5166034;27;19923;-37
2022/11/19 11:52:13;;;;;;;;;;;;;;;19.79;48.03;100770.19;5149664;27;20430;-37
2022/11/19 11:54:59;;;;;;;;;;;;;;;19.79;48.17;100778.47;5163701;27;20319;-38
2022/11/19 11:57:25;;;;;;;;;;;;;;;19.79;48.03;100775.72;5148223;27;20382;-37
2022/11/19 11:59:51;;;;;;;;;;;;;;;19.79;47.97;100770.19;5165867;27;19981;-38
2022/11/19 12:02:33;;;;;;;;;;;;;;;19.79;47.87;100762.72;5150554;27;19923;-39
2022/11/19 12:05:01;;;;;;;;;;;;;;;19.79;48.21;100776.53;5148275;27;19923;-39
2022/11/19 12:07:46;;;;;;;;;;;;;;;19.78;48.14;100769.38;5166668;27;19966;-38
2022/11/19 12:10:32;;;;;;;;;;;;;;;19.80;48.10;100777.34;5153025;27;19997;-39
2022/11/19 12:13:01;;;;;;;;;;;;;;;19.78;48.31;100777.66;5151720;27;19975;-39
2022/11/19 12:18:28;;;;;;;;;;;;;;;19.78;47.88;100774.91;5182418;27;20512;-39
2022/11/19 12:21:09;;;;;;;;;;;;;;;19.79;48.04;100759.13;5146499;27;19965;-39
2022/11/19 12:23:57;;;;;;;;;;;;;;;19.79;47.90;100770.19;5147894;27;19923;-38
2022/11/19 12:26:42;;;;;;;;;;;;;;;19.78;48.12;100766.59;5148184;27;19958;-39
2022/11/19 12:29:28;;;;;;;;;;;;;;;19.78;47.99;100771.31;5152421;27;20380;-38
2022/11/19 12:32:13;;;;;;;;;;;;;;;19.78;47.95;100763.84;5149174;27;20055;-38
2022/11/19 12:34:46;;;;;;;;;;;;;;;19.78;48.13;100763.03;5150988;27;20366;-38
2022/11/19 12:37:31;;;;;;;;;;;;;;;19.78;48.27;100772.13;5160135;27;19999;-38
2022/11/19 12:40:01;;;;;;;;;;;;;;;19.78;48.00;100768.53;5151455;27;19983;-38
2022/11/19 12:42:30;;;;;;;;;;;;;;;19.77;47.88;100762.19;5167104;27;19958;-37
2022/11/19 12:45:01;;;;;;;;;;;;;;;19.78;48.05;100763.03;5171703;27;20383;-38
2022/11/19 12:47:47;;;;;;;;;;;;;;;19.78;48.28;100761.06;5149038;27;19966;-38
2022/11/19 12:50:15;;;;;;;;;;;;;;;19.78;48.04;100755.56;5147463;27;19954;-38
2022/11/19 12:53:00;;;;;;;;;;;;;;;19.77;47.96;100756.69;5161107;27;21156;-39
2022/11/19 12:55:32;;;;;;;;;;;;;;;19.78;48.22;100757.50;5152911;27;19929;-39
2022/11/19 12:58:08;;;;;;;;;;;;;;;19.77;48.15;100758.59;5147613;27;19971;-36
2022/11/19 13:00:34;;;;;;;;;;;;;;;19.78;48.14;100763.84;5162233;27;19958;-38
2022/11/19 13:05:44;;;;;;;;;;;;;;;19.77;47.88;100767.72;5161738;27;19941;-38
2022/11/19 13:08:12;;;;;;;;;;;;;;;19.78;48.23;100768.53;5163633;27;19955;-37
2022/11/19 13:10:39;;;;;;;;;;;;;;;19.77;48.05;100773.25;5137998;27;20027;-38
2022/11/19 13:13:06;;;;;;;;;;;;;;;19.77;48.01;100764.09;5154638;27;20030;-38
2022/11/19 13:15:34;;;;;;;;;;;;;;;19.76;48.07;100777.09;5148654;27;20053;-38
2022/11/19 13:18:00;;;;;;;;;;;;;;;19.77;47.91;100789.84;5132870;27;19984;-36
2022/11/19 13:20:27;;;;;;;;;;;;;;;19.76;48.13;100777.09;5151334;27;19953;-36